createdAt,value
2022-12-14T00:01:40.027Z,100726.00
2022-12-14T00:04:07.374Z,100716.50
2022-12-14T00:06:34.639Z,100711.22
2022-12-14T00:09:04.199Z,100711.16
2022-12-14T00:11:33.605Z,100709.50
2022-12-14T00:14:03.228Z,100716.28
2022-12-14T00:16:32.700Z,100701.50
2022-12-14T00:19:01.226Z,100698.94
2022-12-14T00:21:29.106Z,100705.78
2022-12-14T00:23:58.388Z,100706.06
2022-12-14T00:26:31.160Z,100700.00
2022-12-14T00:29:00.895Z,100706.00
2022-12-14T00:31:28.675Z,100693.00
2022-12-14T00:33:55.881Z,100689.44
2022-12-14T00:36:23.809Z,100693.72
2022-12-14T00:38:50.933Z,100690.09
2022-12-14T00:41:18.131Z,100688.50
2022-12-14T00:43:45.237Z,100682.50
2022-12-14T00:46:17.871Z,100687.00
2022-12-14T00:48:45.519Z,100689.22
2022-12-14T00:51:14.687Z,100684.00
2022-12-14T00:53:43.659Z,100696.19
2022-12-14T00:56:10.884Z,100691.91
2022-12-14T00:58:37.977Z,100681.38
2022-12-14T01:01:07.878Z,100680.50
2022-12-14T01:03:35.428Z,100691.78
2022-12-14T01:06:02.915Z,100702.34
2022-12-14T01:08:35.551Z,100709.38
2022-12-14T01:11:08.054Z,100706.84
2022-12-14T01:13:36.309Z,100701.53
2022-12-14T01:16:08.870Z,100706.78
2022-12-14T01:18:37.978Z,100693.44
2022-12-14T01:21:16.156Z,100695.22
2022-12-14T01:23:44.414Z,100697.00
2022-12-14T01:26:13.825Z,100700.56
2022-12-14T01:28:41.458Z,100703.84
2022-12-14T01:31:11.827Z,100702.19
2022-12-14T01:33:39.154Z,100697.91
2022-12-14T01:36:11.593Z,100694.44
2022-12-14T01:38:39.130Z,100697.94
2022-12-14T01:41:07.801Z,100688.28
2022-12-14T01:43:51.585Z,100673.41
2022-12-14T01:46:26.691Z,100669.91
2022-12-14T01:49:00.215Z,100662.09
2022-12-14T01:51:29.731Z,100664.03
2022-12-14T01:53:58.393Z,100678.84
2022-12-14T01:56:25.884Z,100668.34
2022-12-14T01:58:53.482Z,100669.38
2022-12-14T02:01:20.776Z,100665.94
2022-12-14T02:03:51.689Z,100661.50
2022-12-14T02:06:28.155Z,100663.44
2022-12-14T02:08:57.293Z,100658.38
2022-12-14T02:11:53.910Z,100645.09
2022-12-14T02:14:21.556Z,100648.53
2022-12-14T02:16:53.551Z,100645.00
2022-12-14T02:19:20.919Z,100651.09
2022-12-14T02:22:06.680Z,100638.13
2022-12-14T02:24:59.029Z,100632.16
2022-12-14T02:27:57.393Z,100627.50
2022-12-14T02:30:34.864Z,100634.50
2022-12-14T02:33:34.325Z,100642.34
2022-12-14T02:36:23.157Z,100634.78
2022-12-14T02:39:16.418Z,100619.78
2022-12-14T02:41:52.364Z,100626.00
2022-12-14T02:44:28.663Z,100619.94
2022-12-14T02:47:18.759Z,100607.56
2022-12-14T02:50:00.902Z,100597.81
2022-12-14T02:52:54.339Z,100605.59
2022-12-14T02:55:28.478Z,100596.16
2022-12-14T02:58:14.382Z,100589.97
2022-12-14T03:00:42.492Z,100601.22
2022-12-14T03:03:09.909Z,100605.59
2022-12-14T03:05:37.132Z,100591.59
2022-12-14T03:08:11.593Z,100599.31
2022-12-14T03:11:02.155Z,100597.72
2022-12-14T03:13:35.529Z,100587.44
2022-12-14T03:16:27.008Z,100579.66
2022-12-14T03:18:58.984Z,100585.78
2022-12-14T03:21:36.272Z,100582.22
2022-12-14T03:24:11.072Z,100584.75
2022-12-14T03:26:48.659Z,100588.34
2022-12-14T03:29:22.936Z,100585.59
2022-12-14T03:31:54.524Z,100582.09
2022-12-14T03:34:28.054Z,100587.38
2022-12-14T03:37:15.924Z,100592.66
2022-12-14T03:39:45.445Z,100578.81
2022-12-14T03:42:35.325Z,100580.47
2022-12-14T03:45:14.722Z,100572.59
2022-12-14T03:48:00.442Z,100581.22
2022-12-14T03:50:37.931Z,100576.03
2022-12-14T03:53:14.501Z,100572.44
2022-12-14T03:55:59.656Z,100563.63
2022-12-14T03:58:40.185Z,100561.97
2022-12-14T04:01:28.403Z,100555.09
2022-12-14T04:04:09.212Z,100554.25
2022-12-14T04:06:52.621Z,100543.16
2022-12-14T04:09:38.918Z,100545.59
2022-12-14T04:12:39.089Z,100546.47
2022-12-14T04:15:32.616Z,100535.31
2022-12-14T04:18:23.099Z,100527.31
2022-12-14T04:20:55.935Z,100525.63
2022-12-14T04:23:48.909Z,100530.94
2022-12-14T04:26:23.237Z,100517.88
2022-12-14T04:29:19.662Z,100516.31
2022-12-14T04:31:56.724Z,100511.81
2022-12-14T04:34:28.712Z,100512.72
2022-12-14T04:36:59.465Z,100508.19
2022-12-14T04:39:37.486Z,100509.03
2022-12-14T04:42:08.296Z,100508.56
2022-12-14T04:44:40.646Z,100506.59
2022-12-14T04:47:11.325Z,100500.41
2022-12-14T04:49:50.484Z,100487.19
2022-12-14T04:52:33.551Z,100501.38
2022-12-14T04:55:08.861Z,100484.84
2022-12-14T04:57:51.451Z,100487.38
2022-12-14T05:00:18.899Z,100481.97
2022-12-14T05:03:23.653Z,100486.50
2022-12-14T05:06:06.676Z,100483.81
2022-12-14T05:08:39.400Z,100478.41
2022-12-14T05:14:26.851Z,100481.19
2022-12-14T05:16:54.300Z,100471.59
2022-12-14T05:19:26.235Z,100477.72
2022-12-14T05:21:54.634Z,100469.03
2022-12-14T05:24:21.719Z,100474.16
2022-12-14T05:26:48.822Z,100469.84
2022-12-14T05:29:17.705Z,100472.34
2022-12-14T05:31:49.351Z,100473.19
2022-12-14T05:34:17.324Z,100463.69
2022-12-14T05:36:44.822Z,100467.19
2022-12-14T05:39:12.784Z,100459.09
2022-12-14T05:41:39.912Z,100469.75
2022-12-14T05:44:07.174Z,100467.66
2022-12-14T05:46:34.472Z,100472.16
2022-12-14T05:49:02.169Z,100457.31
2022-12-14T05:51:29.313Z,100459.81
2022-12-14T05:53:58.122Z,100460.56
2022-12-14T05:56:25.273Z,100458.84
2022-12-14T05:58:52.372Z,100459.09
2022-12-14T06:01:20.029Z,100458.25
2022-12-14T06:03:47.617Z,100459.06
2022-12-14T06:06:15.090Z,100447.00
2022-12-14T06:08:45.398Z,100453.63
2022-12-14T06:11:20.690Z,100464.28
2022-12-14T06:13:48.090Z,100456.28
2022-12-14T06:16:22.632Z,100462.22
2022-12-14T06:18:52.181Z,100455.47
2022-12-14T06:21:21.342Z,100446.84
2022-12-14T06:23:48.626Z,100451.88
2022-12-14T06:26:16.744Z,100448.25
2022-12-14T06:28:44.441Z,100448.03
2022-12-14T06:31:19.387Z,100458.16
2022-12-14T06:33:46.900Z,100452.50
2022-12-14T06:36:31.771Z,100462.47
2022-12-14T06:39:05.177Z,100461.72
2022-12-14T06:41:32.379Z,100470.38
2022-12-14T06:44:07.086Z,100465.75
2022-12-14T06:46:36.069Z,100467.38
2022-12-14T06:49:05.935Z,100460.06
2022-12-14T06:51:38.914Z,100461.66
2022-12-14T06:54:06.789Z,100468.50
2022-12-14T06:56:33.898Z,100473.38
2022-12-14T06:59:01.196Z,100474.88
2022-12-14T07:01:29.268Z,100474.03
2022-12-14T07:03:59.159Z,100478.19
2022-12-14T07:06:28.387Z,100477.34
2022-12-14T07:08:57.293Z,100458.13
2022-12-14T07:11:26.346Z,100458.78
2022-12-14T07:13:54.630Z,100447.44
2022-12-14T07:16:24.728Z,100427.72
2022-12-14T07:18:52.393Z,100444.69
2022-12-14T07:21:20.764Z,100455.69
2022-12-14T07:23:49.160Z,100466.03
2022-12-14T07:26:21.032Z,100467.22
2022-12-14T07:28:48.829Z,100454.41
2022-12-14T07:31:22.115Z,100443.88
2022-12-14T07:33:49.794Z,100439.41
2022-12-14T07:36:19.596Z,100436.78
2022-12-14T07:38:49.001Z,100448.28
2022-12-14T07:41:22.670Z,100458.63
2022-12-14T07:43:52.033Z,100456.25
2022-12-14T07:46:24.107Z,100453.63
2022-12-14T07:48:53.738Z,100452.53
2022-12-14T07:51:24.056Z,100444.75
2022-12-14T07:53:52.204Z,100460.31
2022-12-14T07:56:22.667Z,100453.91
2022-12-14T07:58:49.764Z,100456.38
2022-12-14T08:01:19.961Z,100460.59
2022-12-14T08:03:50.225Z,100451.91
2022-12-14T08:06:18.958Z,100460.66
2022-12-14T08:08:46.508Z,100458.66
2022-12-14T08:11:14.867Z,100460.91
2022-12-14T08:13:43.312Z,100456.94
2022-12-14T08:16:13.483Z,100456.78
2022-12-14T08:18:41.392Z,100457.81
2022-12-14T08:21:10.683Z,100451.97
2022-12-14T08:23:38.380Z,100454.41
2022-12-14T08:26:06.862Z,100457.81
2022-12-14T08:28:36.012Z,100457.69
2022-12-14T08:31:09.555Z,100455.16
2022-12-14T08:33:38.252Z,100459.06
2022-12-14T08:36:13.078Z,100453.84
2022-12-14T08:38:41.120Z,100464.16
2022-12-14T08:41:10.796Z,100471.16
2022-12-14T08:43:38.585Z,100473.09
2022-12-14T08:46:06.164Z,100470.56
2022-12-14T08:48:33.850Z,100472.13
2022-12-14T08:51:02.792Z,100466.97
2022-12-14T08:53:30.253Z,100462.84
2022-12-14T08:55:57.685Z,100473.88
2022-12-14T08:58:26.142Z,100477.78
2022-12-14T09:01:20.337Z,100480.00
2022-12-14T09:03:48.295Z,100479.31
2022-12-14T09:06:28.839Z,100472.75
2022-12-14T09:08:55.997Z,100479.78
2022-12-14T09:11:23.098Z,100476.22
2022-12-14T09:13:54.147Z,100473.44
2022-12-14T09:16:23.873Z,100469.09
2022-12-14T09:18:51.002Z,100470.66
2022-12-14T09:21:18.193Z,100465.22
2022-12-14T09:23:45.907Z,100462.59
2022-12-14T09:26:16.614Z,100463.28
2022-12-14T09:28:50.125Z,100461.66
2022-12-14T09:31:22.236Z,100467.47
2022-12-14T09:33:50.348Z,100466.44
2022-12-14T09:36:20.533Z,100457.66
2022-12-14T09:38:52.274Z,100447.25
2022-12-14T09:41:30.268Z,100442.25
2022-12-14T09:44:18.771Z,100440.09
2022-12-14T09:46:58.860Z,100442.53
2022-12-14T09:49:48.480Z,100454.53
2022-12-14T09:52:20.885Z,100459.41
2022-12-14T09:54:49.867Z,100454.50
2022-12-14T09:57:38.669Z,100472.22
2022-12-14T10:00:15.268Z,100463.66
2022-12-14T10:03:06.341Z,100467.09
2022-12-14T10:06:18.305Z,100472.03
2022-12-14T10:09:29.304Z,100473.31
2022-12-14T10:12:39.218Z,100486.25
2022-12-14T10:15:25.085Z,100493.88
2022-12-14T10:18:01.252Z,100495.81
2022-12-14T10:20:48.348Z,100477.06
2022-12-14T10:23:23.039Z,100483.28
2022-12-14T10:26:07.527Z,100474.44
2022-12-14T10:28:44.319Z,100472.94
2022-12-14T10:31:16.880Z,100464.84
2022-12-14T10:33:46.276Z,100461.56
2022-12-14T10:36:26.474Z,100461.19
2022-12-14T10:39:22.437Z,100445.16
2022-12-14T10:42:03.868Z,100463.25
2022-12-14T10:45:09.631Z,100465.31
2022-12-14T10:47:47.038Z,100462.16
2022-12-14T10:50:32.438Z,100462.03
2022-12-14T10:53:02.768Z,100453.94
2022-12-14T10:55:34.682Z,100451.97
2022-12-14T10:58:02.953Z,100456.50
2022-12-14T11:00:30.025Z,100453.31
2022-12-14T11:02:58.078Z,100447.91
2022-12-14T11:05:42.936Z,100446.88
2022-12-14T11:08:10.012Z,100452.16
2022-12-14T11:10:39.541Z,100446.56
2022-12-14T11:13:15.340Z,100452.53
2022-12-14T11:15:47.648Z,100443.53
2022-12-14T11:18:17.656Z,100440.50
2022-12-14T11:20:58.887Z,100430.69
2022-12-14T11:23:35.916Z,100417.94
2022-12-14T11:26:06.935Z,100420.81
2022-12-14T11:28:45.639Z,100419.50
2022-12-14T11:31:20.404Z,100416.31
2022-12-14T11:33:56.267Z,100427.06
2022-12-14T11:36:31.260Z,100413.22
2022-12-14T11:39:04.351Z,100418.41
2022-12-14T11:41:38.321Z,100411.22
2022-12-14T11:44:19.431Z,100406.81
2022-12-14T11:47:03.406Z,100414.00
2022-12-14T11:49:37.659Z,100400.22
2022-12-14T11:52:04.690Z,100404.84
2022-12-14T11:54:33.132Z,100394.97
2022-12-14T11:57:08.420Z,100387.38
2022-12-14T11:59:41.170Z,100382.38
2022-12-14T12:02:30.660Z,100367.56
2022-12-14T12:05:19.767Z,100360.47
2022-12-14T12:07:49.803Z,100369.59
2022-12-14T12:10:22.432Z,100365.53
2022-12-14T12:12:54.733Z,100369.59
2022-12-14T12:15:38.511Z,100368.72
2022-12-14T12:18:17.877Z,100364.72
2022-12-14T12:21:19.454Z,100368.66
2022-12-14T12:23:56.203Z,100362.25
2022-12-14T12:26:39.883Z,100359.44
2022-12-14T12:29:19.715Z,100363.56
2022-12-14T12:32:20.895Z,100351.25
2022-12-14T12:34:55.938Z,100359.41
2022-12-14T12:37:31.284Z,100353.88
2022-12-14T12:40:13.781Z,100349.19
2022-12-14T12:42:50.114Z,100340.75
2022-12-14T12:45:38.952Z,100344.19
2022-12-14T12:48:14.986Z,100336.31
2022-12-14T12:50:56.674Z,100337.06
2022-12-14T12:53:29.085Z,100341.94
2022-12-14T12:56:26.765Z,100332.94
2022-12-14T12:58:55.055Z,100339.31
2022-12-14T13:01:28.353Z,100349.34
2022-12-14T13:04:00.951Z,100339.25
2022-12-14T13:06:34.427Z,100332.25
2022-12-14T13:09:21.376Z,100328.47
2022-12-14T13:11:49.395Z,100321.09
2022-12-14T13:14:19.291Z,100325.25
2022-12-14T13:16:47.299Z,100323.84
2022-12-14T13:19:50.694Z,100327.69
2022-12-14T13:22:26.219Z,100322.72
2022-12-14T13:24:59.320Z,100334.41
2022-12-14T13:28:18.512Z,100331.09
2022-12-14T13:31:01.405Z,100333.72
2022-12-14T13:33:51.164Z,100337.59
2022-12-14T13:36:57.163Z,100333.81
2022-12-14T13:39:50.793Z,100337.97
2022-12-14T13:42:21.141Z,100335.78
2022-12-14T13:45:00.516Z,100324.50
2022-12-14T13:47:39.724Z,100322.50
2022-12-14T13:53:25.938Z,100309.69
2022-12-14T13:56:01.063Z,100303.31
2022-12-14T13:58:30.578Z,100297.06
2022-12-14T14:01:08.669Z,100292.00
2022-12-14T14:03:43.879Z,100298.97
2022-12-14T14:06:12.211Z,100290.19
2022-12-14T14:08:44.820Z,100286.19
2022-12-14T14:14:35.354Z,100293.88
2022-12-14T14:17:24.367Z,100291.03
2022-12-14T14:19:54.709Z,100293.66
2022-12-14T14:22:25.115Z,100299.13
2022-12-14T14:24:57.649Z,100301.53
2022-12-14T14:27:37.569Z,100302.13
2022-12-14T14:30:22.845Z,100285.16
2022-12-14T14:32:53.981Z,100288.91
2022-12-14T14:35:27.140Z,100284.50
2022-12-14T14:37:58.231Z,100282.81
2022-12-14T14:41:13.775Z,100284.78
2022-12-14T14:43:34.926Z,100278.16
2022-12-14T14:46:08.066Z,100273.59
2022-12-14T14:48:37.304Z,100277.91
2022-12-14T14:51:08.829Z,100282.81
2022-12-14T14:53:37.755Z,100283.31
2022-12-14T14:56:29.617Z,100286.03
2022-12-14T14:59:38.992Z,100277.84
2022-12-14T15:02:28.183Z,100281.59
2022-12-14T15:04:57.145Z,100280.81
2022-12-14T15:07:31.050Z,100292.56
2022-12-14T15:10:16.415Z,100288.88
2022-12-14T15:13:05.996Z,100295.03
2022-12-14T15:15:44.501Z,100277.88
2022-12-14T15:18:16.196Z,100267.91
2022-12-14T15:21:09.935Z,100269.84
2022-12-14T15:23:42.746Z,100260.34
2022-12-14T15:26:17.094Z,100262.78
2022-12-14T15:28:53.707Z,100245.94
2022-12-14T15:31:30.593Z,100252.09
2022-12-14T15:33:59.126Z,100244.91
2022-12-14T15:36:32.665Z,100243.22
2022-12-14T15:39:00.093Z,100256.31
2022-12-14T15:41:32.940Z,100243.97
2022-12-14T15:44:00.903Z,100241.38
2022-12-14T15:46:31.318Z,100240.03
2022-12-14T15:49:04.660Z,100238.53
2022-12-14T15:51:35.752Z,100245.75
2022-12-14T15:54:05.658Z,100256.25
2022-12-14T15:56:38.796Z,100269.81
2022-12-14T15:59:31.459Z,100267.34
2022-12-14T16:02:23.613Z,100267.25
2022-12-14T16:04:52.293Z,100277.03
2022-12-14T16:07:42.495Z,100293.00
2022-12-14T16:10:33.550Z,100299.88
2022-12-14T16:13:05.896Z,100303.38
2022-12-14T16:15:33.726Z,100304.22
2022-12-14T16:18:03.378Z,100286.47
2022-12-14T16:20:33.965Z,100284.78
2022-12-14T16:23:07.151Z,100292.91
2022-12-14T16:25:36.866Z,100291.91
2022-12-14T16:28:39.534Z,100293.66
2022-12-14T16:31:21.975Z,100284.06
2022-12-14T16:34:09.469Z,100285.53
2022-12-14T16:36:37.896Z,100278.72
2022-12-14T16:39:14.469Z,100285.53
2022-12-14T16:41:52.679Z,100274.28
2022-12-14T16:44:24.183Z,100277.34
2022-12-14T16:47:03.382Z,100272.31
2022-12-14T16:49:40.693Z,100272.59
2022-12-14T16:52:26.770Z,100275.19
2022-12-14T16:55:15.073Z,100276.91
2022-12-14T16:57:53.735Z,100291.72
2022-12-14T17:00:33.464Z,100295.38
2022-12-14T17:03:03.923Z,100291.97
2022-12-14T17:05:37.245Z,100290.19
2022-12-14T17:08:06.676Z,100291.03
2022-12-14T17:10:34.506Z,100300.59
2022-12-14T17:13:02.863Z,100290.00
2022-12-14T17:15:33.518Z,100289.22
2022-12-14T17:18:03.884Z,100276.91
2022-12-14T17:20:39.240Z,100285.41
2022-12-14T17:23:09.578Z,100292.97
2022-12-14T17:25:36.854Z,100296.63
2022-12-14T17:28:20.687Z,100298.31
2022-12-14T17:30:48.755Z,100288.31
2022-12-14T17:33:16.473Z,100295.44
2022-12-14T17:35:43.666Z,100288.22
2022-12-14T17:38:15.199Z,100279.31
2022-12-14T17:40:44.019Z,100284.91
2022-12-14T17:43:14.373Z,100285.41
2022-12-14T17:45:41.804Z,100287.84
2022-12-14T17:48:13.582Z,100294.91
2022-12-14T17:50:43.034Z,100295.84
2022-12-14T17:53:14.662Z,100285.41
2022-12-14T17:55:42.042Z,100285.16
2022-12-14T17:58:12.276Z,100287.50
2022-12-14T18:00:59.557Z,100285.53
2022-12-14T18:03:31.358Z,100287.75
2022-12-14T18:05:59.437Z,100293.16
2022-12-14T18:08:26.769Z,100292.03
2022-12-14T18:11:00.034Z,100300.09
2022-12-14T18:13:28.620Z,100312.34
2022-12-14T18:15:56.347Z,100310.63
2022-12-14T18:18:25.550Z,100303.69
2022-12-14T18:20:56.490Z,100310.63
2022-12-14T18:23:23.903Z,100311.41
2022-12-14T18:25:56.482Z,100309.59
2022-12-14T18:28:24.230Z,100306.38
2022-12-14T18:30:55.562Z,100308.72
2022-12-14T18:33:26.075Z,100301.91
2022-12-14T18:35:55.143Z,100302.38
2022-12-14T18:38:22.417Z,100303.38
2022-12-14T18:40:51.752Z,100288.56
2022-12-14T18:43:23.177Z,100294.59
2022-12-14T18:45:52.672Z,100287.66
2022-12-14T18:48:20.561Z,100298.00
2022-12-14T18:50:49.830Z,100300.53
2022-12-14T18:53:19.705Z,100300.09
2022-12-14T18:55:47.588Z,100294.06
2022-12-14T18:58:23.093Z,100291.19
2022-12-14T19:00:52.640Z,100285.81
2022-12-14T19:03:20.574Z,100293.16
2022-12-14T19:05:47.786Z,100298.47
2022-12-14T19:08:14.945Z,100300.13
2022-12-14T19:10:46.229Z,100303.75
2022-12-14T19:13:25.405Z,100306.31
2022-12-14T19:15:54.422Z,100315.09
2022-12-14T19:18:21.621Z,100317.63
2022-12-14T19:20:49.381Z,100309.94
2022-12-14T19:23:18.703Z,100302.75
2022-12-14T19:25:46.892Z,100303.75
2022-12-14T19:31:01.752Z,100307.16
2022-12-14T19:33:29.868Z,100310.69
2022-12-14T19:35:57.389Z,100309.78
2022-12-14T19:38:24.509Z,100307.88
2022-12-14T19:40:59.662Z,100301.66
2022-12-14T19:43:28.147Z,100298.13
2022-12-14T19:45:55.852Z,100296.81
2022-12-14T19:48:23.137Z,100298.47
2022-12-14T19:50:50.676Z,100298.25
2022-12-14T19:53:27.544Z,100301.66
2022-12-14T19:55:54.707Z,100302.00
2022-12-14T19:58:22.830Z,100294.91
2022-12-14T20:00:50.398Z,100298.38
2022-12-14T20:03:18.302Z,100302.97
2022-12-14T20:05:59.282Z,100308.31
2022-12-14T20:08:28.800Z,100303.09
2022-12-14T20:10:56.484Z,100299.50
2022-12-14T20:13:27.687Z,100305.84
2022-12-14T20:16:01.018Z,100308.47
2022-12-14T20:18:29.776Z,100304.03
2022-12-14T20:21:08.835Z,100317.97
2022-12-14T20:23:37.314Z,100309.28
2022-12-14T20:26:09.614Z,100303.16
2022-12-14T20:28:37.113Z,100306.94
2022-12-14T20:31:09.180Z,100314.75
2022-12-14T20:33:38.404Z,100320.13
2022-12-14T20:36:06.419Z,100319.34
2022-12-14T20:38:34.080Z,100314.81
2022-12-14T20:41:12.646Z,100304.88
2022-12-14T20:43:42.527Z,100303.16
2022-12-14T20:46:32.767Z,100307.41
2022-12-14T20:49:02.063Z,100307.75
2022-12-14T20:51:31.408Z,100301.69
2022-12-14T20:53:59.002Z,100297.41
2022-12-14T20:56:26.149Z,100305.13
2022-12-14T20:58:53.274Z,100311.16
2022-12-14T21:01:21.657Z,100307.75
2022-12-14T21:03:50.148Z,100311.19
2022-12-14T21:06:19.765Z,100307.94
2022-12-14T21:09:01.742Z,100306.84
2022-12-14T21:11:47.575Z,100315.59
2022-12-14T21:14:15.086Z,100307.94
2022-12-14T21:16:42.724Z,100300.94
2022-12-14T21:19:12.052Z,100301.66
2022-12-14T21:21:40.352Z,100301.78
2022-12-14T21:24:09.659Z,100302.56
2022-12-14T21:26:39.975Z,100301.53
2022-12-14T21:29:09.077Z,100304.53
2022-12-14T21:31:37.230Z,100303.56
2022-12-14T21:34:04.914Z,100312.25
2022-12-14T21:36:33.606Z,100310.69
2022-12-14T21:39:02.482Z,100312.19
2022-12-14T21:41:59.101Z,100322.81
2022-12-14T21:44:28.978Z,100316.75
2022-12-14T21:46:56.196Z,100311.34
2022-12-14T21:49:23.927Z,100318.41
2022-12-14T21:51:54.541Z,100318.28
2022-12-14T21:54:21.971Z,100312.88
2022-12-14T21:57:07.898Z,100315.00
2022-12-14T21:59:38.428Z,100314.38
2022-12-14T22:02:17.468Z,100319.84
2022-12-14T22:04:47.832Z,100328.53
2022-12-14T22:07:19.745Z,100330.09
2022-12-14T22:09:49.610Z,100328.34
2022-12-14T22:12:17.946Z,100326.50
2022-12-14T22:14:45.030Z,100331.75
2022-12-14T22:17:14.598Z,100326.50
2022-12-14T22:19:41.833Z,100328.09
2022-12-14T22:22:15.123Z,100319.44
2022-12-14T22:24:42.830Z,100318.00
2022-12-14T22:27:13.185Z,100329.03
2022-12-14T22:29:40.293Z,100317.81
2022-12-14T22:32:08.371Z,100327.78
2022-12-14T22:34:35.565Z,100330.34
2022-12-14T22:37:03.210Z,100326.06
2022-12-14T22:39:30.760Z,100328.88
2022-12-14T22:41:57.874Z,100331.31
2022-12-14T22:44:25.085Z,100341.94
2022-12-14T22:46:52.211Z,100333.94
2022-12-14T22:49:19.740Z,100333.75
2022-12-14T22:51:46.989Z,100324.84
2022-12-14T22:54:23.705Z,100337.22
2022-12-14T22:57:00.649Z,100336.47
2022-12-14T22:59:36.305Z,100335.75
2022-12-14T23:02:04.619Z,100335.72
2022-12-14T23:04:32.052Z,100341.72
2022-12-14T23:06:59.324Z,100335.72
2022-12-14T23:09:44.799Z,100343.31
2022-12-14T23:12:30.353Z,100340.81
2022-12-14T23:15:15.800Z,100334.91
2022-12-14T23:18:01.321Z,100326.22
2022-12-14T23:20:47.459Z,100326.41
2022-12-14T23:23:33.207Z,100324.38
2022-12-14T23:26:23.134Z,100327.13
2022-12-14T23:29:09.070Z,100327.97
2022-12-14T23:31:56.007Z,100337.72
2022-12-14T23:34:41.346Z,100334.13
2022-12-14T23:37:26.932Z,100339.25
2022-12-14T23:40:12.372Z,100343.69
2022-12-14T23:42:58.435Z,100347.22
2022-12-14T23:45:43.881Z,100354.06
2022-12-14T23:48:29.701Z,100344.47
2022-12-14T23:51:15.201Z,100350.63
2022-12-14T23:54:00.691Z,100345.56
2022-12-14T23:56:46.309Z,100342.78
2022-12-14T23:59:32.755Z,100347.03
